createdAt,value
2018-11-14T00:00:15.492Z,8.80
2018-11-14T00:02:44.124Z,8.90
2018-11-14T00:05:12.808Z,8.80
2018-11-14T00:07:41.489Z,8.80
2018-11-14T00:10:10.658Z,8.90
2018-11-14T00:12:39.331Z,8.80
2018-11-14T00:15:11.500Z,8.90
2018-11-14T00:17:40.159Z,8.90
2018-11-14T00:20:10.172Z,8.90
2018-11-14T00:22:39.247Z,8.90
2018-11-14T00:25:08.006Z,8.90
2018-11-14T00:27:36.743Z,8.90
2018-11-14T00:30:07.448Z,8.90
2018-11-14T00:32:36.120Z,8.90
2018-11-14T00:35:04.896Z,8.90
2018-11-14T00:37:33.625Z,8.90
2018-11-14T00:40:02.354Z,9.00
2018-11-14T00:42:31.206Z,9.00
2018-11-14T00:44:59.820Z,9.00
2018-11-14T00:47:28.557Z,9.00
2018-11-14T00:49:57.204Z,9.00
2018-11-14T00:52:26.096Z,9.00
2018-11-14T00:54:54.785Z,9.00
2018-11-14T00:57:23.490Z,9.00
2018-11-14T00:59:52.343Z,8.90
2018-11-14T01:02:21.121Z,8.90
2018-11-14T01:04:49.755Z,9.00
2018-11-14T01:07:18.434Z,9.00
2018-11-14T01:09:47.102Z,8.90
2018-11-14T01:12:16.340Z,8.90
2018-11-14T01:14:45.096Z,9.00
2018-11-14T01:17:13.840Z,9.00
2018-11-14T01:19:42.484Z,9.00
2018-11-14T01:22:11.152Z,8.90
2018-11-14T01:24:39.843Z,9.00
2018-11-14T01:27:08.649Z,9.00
2018-11-14T01:29:37.314Z,9.00
2018-11-14T01:32:06.235Z,8.90
2018-11-14T01:37:41.304Z,9.00
2018-11-14T01:40:14.307Z,8.90
2018-11-14T01:42:43.463Z,9.00
2018-11-14T01:45:12.163Z,9.00
2018-11-14T01:47:40.917Z,8.90
2018-11-14T01:50:10.439Z,8.90
2018-11-14T01:52:39.547Z,8.90
2018-11-14T01:55:10.257Z,8.80
2018-11-14T01:57:38.945Z,8.80
2018-11-14T02:00:18.688Z,8.80
2018-11-14T02:02:47.360Z,8.80
2018-11-14T02:05:16.056Z,8.90
2018-11-14T02:07:44.766Z,8.90
2018-11-14T02:10:15.087Z,8.90
2018-11-14T02:12:44.152Z,8.90
2018-11-14T02:15:17.294Z,8.90
2018-11-14T02:17:45.888Z,8.90
2018-11-14T02:20:14.724Z,8.90
2018-11-14T02:22:50.261Z,8.90
2018-11-14T02:25:19.073Z,8.90
2018-11-14T02:27:47.771Z,8.90
2018-11-14T02:30:18.828Z,8.90
2018-11-14T02:32:47.541Z,8.90
2018-11-14T02:35:16.216Z,8.90
2018-11-14T02:37:45.731Z,8.90
2018-11-14T02:40:16.985Z,8.90
2018-11-14T02:42:45.670Z,8.90
2018-11-14T02:45:14.628Z,8.90
2018-11-14T02:47:43.376Z,8.90
2018-11-14T02:50:13.571Z,8.90
2018-11-14T02:52:44.557Z,8.90
2018-11-14T02:55:14.503Z,8.90
2018-11-14T02:57:43.653Z,8.90
2018-11-14T03:00:17.277Z,8.90
2018-11-14T03:02:45.983Z,8.90
2018-11-14T03:05:14.713Z,8.90
2018-11-14T03:07:43.634Z,8.90
2018-11-14T03:10:14.641Z,8.90
2018-11-14T03:12:43.548Z,8.90
2018-11-14T03:15:16.888Z,8.90
2018-11-14T03:17:45.605Z,8.80
2018-11-14T03:20:15.508Z,8.90
2018-11-14T03:22:44.192Z,8.90
2018-11-14T03:25:13.720Z,8.80
2018-11-14T03:27:42.516Z,8.80
2018-11-14T03:30:13.382Z,8.80
2018-11-14T03:32:42.736Z,8.80
2018-11-14T03:35:12.357Z,8.80
2018-11-14T03:37:41.071Z,8.80
2018-11-14T03:40:12.084Z,8.70
2018-11-14T03:42:40.823Z,8.80
2018-11-14T03:45:11.189Z,8.80
2018-11-14T03:47:40.402Z,8.80
2018-11-14T03:50:09.588Z,8.70
2018-11-14T03:52:38.371Z,8.70
2018-11-14T03:55:07.278Z,8.70
2018-11-14T03:57:36.173Z,8.70
2018-11-14T04:00:07.847Z,8.70
2018-11-14T04:02:36.424Z,8.70
2018-11-14T04:05:05.760Z,8.70
2018-11-14T04:07:34.506Z,8.60
2018-11-14T04:10:03.333Z,8.70
2018-11-14T04:12:32.164Z,8.70
2018-11-14T04:15:00.808Z,8.60
2018-11-14T04:17:29.716Z,8.60
2018-11-14T04:19:59.141Z,8.50
2018-11-14T04:22:27.760Z,8.50
2018-11-14T04:24:56.456Z,8.50
2018-11-14T04:27:25.233Z,8.40
2018-11-14T04:29:53.929Z,8.40
2018-11-14T04:32:22.650Z,8.30
2018-11-14T04:34:51.677Z,8.30
2018-11-14T04:37:20.471Z,8.30
2018-11-14T04:39:49.238Z,8.30
2018-11-14T04:42:17.913Z,8.30
2018-11-14T04:44:46.541Z,8.30
2018-11-14T04:47:15.246Z,8.30
2018-11-14T04:49:43.932Z,8.30
2018-11-14T04:52:12.648Z,8.30
2018-11-14T04:54:41.537Z,8.30
2018-11-14T04:57:10.288Z,8.30
2018-11-14T04:59:39.083Z,8.30
2018-11-14T05:02:08.308Z,8.30
2018-11-14T05:04:37.096Z,8.30
2018-11-14T05:07:05.896Z,8.30
2018-11-14T05:09:34.557Z,8.30
2018-11-14T05:19:03.089Z,8.30
2018-11-14T05:21:32.003Z,8.30
2018-11-14T05:24:00.621Z,8.20
2018-11-14T05:26:29.321Z,8.30
2018-11-14T05:28:58.072Z,8.20
2018-11-14T05:31:26.665Z,8.30
2018-11-14T05:33:55.307Z,8.30
2018-11-14T05:36:23.967Z,8.20
2018-11-14T05:38:53.760Z,8.30
2018-11-14T05:41:22.457Z,8.30
2018-11-14T05:43:51.312Z,8.30
2018-11-14T05:46:20.971Z,8.30
2018-11-14T05:48:49.639Z,8.20
2018-11-14T05:51:18.389Z,8.30
2018-11-14T05:53:46.992Z,8.30
2018-11-14T05:56:15.727Z,8.20
2018-11-14T05:58:44.383Z,8.30
2018-11-14T06:01:13.080Z,8.20
2018-11-14T06:03:41.786Z,8.30
2018-11-14T06:06:10.451Z,8.20
2018-11-14T06:08:39.103Z,8.30
2018-11-14T06:11:08.032Z,8.20
2018-11-14T06:13:36.727Z,8.30
2018-11-14T06:16:05.487Z,8.20
2018-11-14T06:18:34.190Z,8.20
2018-11-14T06:21:02.865Z,8.20
2018-11-14T06:23:31.567Z,8.20
2018-11-14T06:26:00.268Z,8.20
2018-11-14T06:28:28.903Z,8.20
2018-11-14T06:30:57.761Z,8.20
2018-11-14T06:33:26.379Z,8.20
2018-11-14T06:35:55.290Z,8.10
2018-11-14T06:38:24.244Z,8.20
2018-11-14T06:40:52.968Z,8.20
2018-11-14T06:43:21.661Z,8.20
2018-11-14T06:45:50.339Z,8.10
2018-11-14T06:48:19.018Z,8.20
2018-11-14T06:50:47.703Z,8.20
2018-11-14T06:53:16.393Z,8.20
2018-11-14T06:55:45.104Z,8.30
2018-11-14T06:58:13.880Z,8.20
2018-11-14T07:00:42.561Z,8.30
2018-11-14T07:03:11.236Z,8.30
2018-11-14T07:05:40.007Z,8.30
2018-11-14T07:08:08.608Z,8.40
2018-11-14T07:10:37.929Z,8.40
2018-11-14T07:13:11.313Z,8.40
2018-11-14T07:15:40.788Z,8.40
2018-11-14T07:18:10.528Z,8.40
2018-11-14T07:20:40.748Z,8.50
2018-11-14T07:23:09.492Z,8.40
2018-11-14T07:25:38.296Z,8.40
2018-11-14T07:28:07.078Z,8.40
2018-11-14T07:30:36.289Z,8.40
2018-11-14T07:33:06.532Z,8.50
2018-11-14T07:35:35.194Z,8.50
2018-11-14T07:38:36.867Z,8.40
2018-11-14T07:41:07.195Z,8.40
2018-11-14T07:43:36.833Z,8.40
2018-11-14T07:46:06.348Z,8.40
2018-11-14T07:48:35.365Z,8.40
2018-11-14T07:51:04.375Z,8.50
2018-11-14T07:53:33.602Z,8.50
2018-11-14T07:56:02.286Z,8.60
2018-11-14T07:58:31.202Z,8.60
2018-11-14T08:01:00.215Z,8.70
2018-11-14T08:03:28.934Z,8.70
2018-11-14T08:05:57.933Z,8.60
2018-11-14T08:08:26.868Z,8.70
2018-11-14T08:10:55.499Z,8.70
2018-11-14T08:13:26.500Z,8.60
2018-11-14T08:15:57.707Z,8.60
2018-11-14T08:18:26.628Z,8.60
2018-11-14T08:20:56.048Z,8.60
2018-11-14T08:23:24.719Z,8.60
2018-11-14T08:25:53.482Z,8.60
2018-11-14T08:28:22.119Z,8.60
2018-11-14T08:30:50.856Z,8.60
2018-11-14T08:33:19.584Z,8.60
2018-11-14T08:35:48.511Z,8.60
2018-11-14T08:38:17.282Z,8.60
2018-11-14T08:40:46.179Z,8.60
2018-11-14T08:43:14.834Z,8.60
2018-11-14T08:45:43.599Z,8.60
2018-11-14T08:48:12.359Z,8.60
2018-11-14T08:50:41.124Z,8.70
2018-11-14T08:53:10.724Z,8.70
2018-11-14T08:55:39.416Z,8.70
2018-11-14T08:58:09.995Z,8.70
2018-11-14T09:00:38.751Z,8.70
2018-11-14T09:03:09.257Z,8.70
2018-11-14T09:05:38.016Z,8.70
2018-11-14T09:08:06.784Z,8.70
2018-11-14T09:10:35.507Z,8.70
2018-11-14T09:13:04.308Z,8.70
2018-11-14T09:15:32.970Z,8.70
2018-11-14T09:18:01.691Z,8.70
2018-11-14T09:20:30.407Z,8.70
2018-11-14T09:22:59.247Z,8.70
2018-11-14T09:25:29.572Z,8.80
2018-11-14T09:27:58.993Z,8.80
2018-11-14T09:30:27.856Z,8.80
2018-11-14T09:32:56.704Z,8.70
2018-11-14T09:35:26.368Z,8.70
2018-11-14T09:37:56.366Z,8.70
2018-11-14T09:40:26.214Z,8.70
2018-11-14T09:42:54.872Z,8.60
2018-11-14T09:45:25.017Z,8.60
2018-11-14T09:47:53.656Z,8.60
2018-11-14T09:50:24.624Z,8.60
2018-11-14T09:52:57.647Z,8.60
2018-11-14T09:55:26.327Z,8.60
2018-11-14T09:57:54.971Z,8.60
2018-11-14T10:00:25.985Z,8.70
2018-11-14T10:02:56.723Z,8.70
2018-11-14T10:05:25.654Z,8.80
2018-11-14T10:07:54.292Z,8.80
2018-11-14T10:10:23.421Z,8.90
2018-11-14T10:12:52.092Z,8.80
2018-11-14T10:15:23.224Z,8.90
2018-11-14T10:17:51.889Z,9.00
2018-11-14T10:20:21.850Z,8.90
2018-11-14T10:22:50.734Z,8.90
2018-11-14T10:25:19.635Z,8.90
2018-11-14T10:27:49.014Z,8.90
2018-11-14T10:30:24.481Z,8.90
2018-11-14T10:32:53.535Z,8.90
2018-11-14T10:35:22.275Z,8.90
2018-11-14T10:37:51.060Z,8.90
2018-11-14T10:40:27.381Z,8.90
2018-11-14T10:42:56.406Z,9.00
2018-11-14T10:45:25.906Z,9.00
2018-11-14T10:47:54.640Z,9.00
2018-11-14T10:50:24.644Z,9.00
2018-11-14T10:52:53.337Z,9.00
2018-11-14T10:55:22.579Z,8.90
2018-11-14T10:57:51.660Z,8.90
2018-11-14T11:00:27.700Z,8.90
2018-11-14T11:03:02.205Z,8.90
2018-11-14T11:05:36.288Z,8.80
2018-11-14T11:08:10.721Z,8.80
2018-11-14T11:10:44.729Z,8.80
2018-11-14T11:13:18.715Z,8.80
2018-11-14T11:15:52.789Z,8.80
2018-11-14T11:18:25.492Z,8.80
2018-11-14T11:20:54.295Z,8.80
2018-11-14T11:23:23.156Z,8.80
2018-11-14T11:25:51.946Z,8.80
2018-11-14T11:28:20.863Z,8.80
2018-11-14T11:30:49.652Z,8.80
2018-11-14T11:33:18.227Z,8.80
2018-11-14T11:35:47.008Z,8.80
2018-11-14T11:38:15.762Z,8.80
2018-11-14T11:40:44.324Z,8.80
2018-11-14T11:43:13.033Z,8.80
2018-11-14T11:45:41.703Z,8.80
2018-11-14T11:48:10.468Z,8.90
2018-11-14T11:50:39.204Z,8.90
2018-11-14T11:53:07.960Z,9.00
2018-11-14T11:55:36.749Z,8.90
2018-11-14T11:58:06.101Z,9.00
2018-11-14T12:00:34.814Z,9.00
2018-11-14T12:03:03.444Z,9.00
2018-11-14T12:05:32.098Z,9.00
2018-11-14T12:08:00.804Z,9.10
2018-11-14T12:10:29.549Z,9.10
2018-11-14T12:12:58.187Z,9.10
2018-11-14T12:15:26.844Z,9.20
2018-11-14T12:17:55.668Z,9.20
2018-11-14T12:20:24.198Z,9.30
2018-11-14T12:22:52.938Z,9.30
2018-11-14T12:25:21.639Z,9.30
2018-11-14T12:27:50.304Z,9.30
2018-11-14T12:30:19.013Z,9.10
2018-11-14T12:32:47.650Z,9.00
2018-11-14T12:35:17.058Z,9.00
2018-11-14T12:37:45.648Z,8.90
2018-11-14T12:40:14.931Z,8.90
2018-11-14T12:42:43.696Z,8.90
2018-11-14T12:45:13.917Z,8.90
2018-11-14T12:47:42.807Z,8.90
2018-11-14T12:50:12.650Z,8.90
2018-11-14T12:52:41.670Z,8.90
2018-11-14T12:55:17.843Z,8.90
2018-11-14T12:57:46.822Z,9.00
2018-11-14T13:00:16.962Z,9.00
2018-11-14T13:02:45.584Z,9.00
2018-11-14T13:05:15.116Z,9.10
2018-11-14T13:07:43.968Z,9.10
2018-11-14T13:10:14.048Z,9.00
2018-11-14T13:12:43.515Z,9.10
2018-11-14T13:15:13.472Z,9.10
2018-11-14T13:17:43.029Z,9.10
2018-11-14T13:20:15.001Z,9.10
2018-11-14T13:22:44.228Z,9.10
2018-11-14T13:25:13.810Z,9.10
2018-11-14T13:27:43.635Z,9.10
2018-11-14T13:30:15.873Z,9.20
2018-11-14T13:32:45.602Z,9.10
2018-11-14T13:35:15.457Z,9.10
2018-11-14T13:37:45.029Z,9.10
2018-11-14T13:40:13.699Z,9.10
2018-11-14T13:42:42.823Z,9.10
2018-11-14T13:45:13.056Z,9.10
2018-11-14T13:47:42.055Z,9.20
2018-11-14T13:50:19.814Z,9.10
2018-11-14T13:52:48.408Z,9.10
2018-11-14T13:55:18.329Z,9.10
2018-11-14T13:57:48.311Z,9.10
2018-11-14T14:00:17.715Z,9.10
2018-11-14T14:02:46.692Z,9.20
2018-11-14T14:05:16.720Z,9.20
2018-11-14T14:07:45.425Z,9.20
2018-11-14T14:10:15.151Z,9.20
2018-11-14T14:12:45.061Z,9.30
2018-11-14T14:15:17.812Z,9.20
2018-11-14T14:17:47.174Z,9.20
2018-11-14T14:20:16.431Z,9.20
2018-11-14T14:22:45.125Z,9.20
2018-11-14T14:25:15.125Z,9.30
2018-11-14T14:27:43.843Z,9.20
2018-11-14T14:30:14.142Z,9.30
2018-11-14T14:32:43.538Z,9.30
2018-11-14T14:35:13.270Z,9.30
2018-11-14T14:37:42.221Z,9.30
2018-11-14T14:40:14.292Z,9.20
2018-11-14T14:42:42.991Z,9.20
2018-11-14T14:45:12.805Z,9.20
2018-11-14T14:47:41.584Z,9.20
2018-11-14T14:50:12.430Z,9.20
2018-11-14T14:52:41.506Z,9.20
2018-11-14T14:55:12.777Z,9.20
2018-11-14T14:57:41.723Z,9.20
2018-11-14T15:00:14.164Z,9.20
2018-11-14T15:02:43.325Z,9.20
2018-11-14T15:05:12.844Z,9.10
2018-11-14T15:07:41.731Z,9.10
2018-11-14T15:10:13.128Z,9.10
2018-11-14T15:12:42.067Z,9.10
2018-11-14T15:15:11.150Z,9.10
2018-11-14T15:17:39.906Z,9.10
2018-11-14T15:20:10.945Z,9.10
2018-11-14T15:22:39.936Z,9.10
2018-11-14T15:25:10.769Z,9.10
2018-11-14T15:27:40.300Z,9.10
2018-11-14T15:30:13.526Z,9.10
2018-11-14T15:32:42.209Z,9.00
2018-11-14T15:35:11.996Z,9.10
2018-11-14T15:37:41.156Z,9.10
2018-11-14T15:40:12.196Z,9.00
2018-11-14T15:42:40.997Z,9.00
2018-11-14T15:45:27.132Z,9.00
2018-11-14T15:47:57.514Z,9.00
2018-11-14T15:50:27.632Z,9.00
2018-11-14T15:52:57.284Z,9.00
2018-11-14T15:55:25.958Z,9.00
2018-11-14T15:57:54.979Z,9.00
2018-11-14T16:00:25.060Z,9.00
2018-11-14T16:02:53.756Z,8.90
2018-11-14T16:05:23.481Z,9.00
2018-11-14T16:07:53.273Z,8.90
2018-11-14T16:10:23.067Z,8.90
2018-11-14T16:12:51.945Z,8.90
2018-11-14T16:15:22.098Z,8.80
2018-11-14T16:17:50.940Z,8.80
2018-11-14T16:20:21.175Z,8.80
2018-11-14T16:22:50.065Z,8.80
2018-11-14T16:25:19.888Z,8.80
2018-11-14T16:27:49.512Z,8.70
2018-11-14T16:30:23.932Z,8.80
2018-11-14T16:32:53.975Z,8.80
2018-11-14T16:35:22.588Z,8.80
2018-11-14T16:37:51.294Z,8.70
2018-11-14T16:40:21.328Z,8.80
2018-11-14T16:42:50.743Z,8.70
2018-11-14T16:45:19.379Z,8.70
2018-11-14T16:47:48.351Z,8.70
2018-11-14T16:50:18.119Z,8.70
2018-11-14T16:52:47.029Z,8.70
2018-11-14T16:55:17.037Z,8.70
2018-11-14T16:57:46.511Z,8.70
2018-11-14T17:00:17.578Z,8.70
2018-11-14T17:02:46.379Z,8.70
2018-11-14T17:05:15.656Z,8.70
2018-11-14T17:07:44.419Z,8.60
2018-11-14T17:10:14.639Z,8.60
2018-11-14T17:12:44.294Z,8.60
2018-11-14T17:15:14.285Z,8.60
2018-11-14T17:17:42.952Z,8.60
2018-11-14T17:20:13.102Z,8.60
2018-11-14T17:22:42.376Z,8.50
2018-11-14T17:25:12.024Z,8.60
2018-11-14T17:27:41.284Z,8.60
2018-11-14T17:30:12.673Z,8.50
2018-11-14T17:32:42.017Z,8.50
2018-11-14T17:35:11.760Z,8.50
2018-11-14T17:37:41.168Z,8.50
2018-11-14T17:40:13.400Z,8.60
2018-11-14T17:42:43.171Z,8.60
2018-11-14T17:45:14.082Z,8.50
2018-11-14T17:47:42.956Z,8.60
2018-11-14T17:50:15.903Z,8.60
2018-11-14T17:52:44.744Z,8.60
2018-11-14T17:55:14.777Z,8.60
2018-11-14T17:57:43.551Z,8.60
2018-11-14T18:00:14.980Z,8.60
2018-11-14T18:02:44.490Z,8.60
2018-11-14T18:05:15.649Z,8.70
2018-11-14T18:07:45.121Z,8.60
2018-11-14T18:10:16.412Z,8.70
2018-11-14T18:12:46.167Z,8.70
2018-11-14T18:15:14.945Z,8.60
2018-11-14T18:17:43.792Z,8.70
2018-11-14T18:20:13.988Z,8.60
2018-11-14T18:22:43.612Z,8.60
2018-11-14T18:25:12.691Z,8.60
2018-11-14T18:27:41.431Z,8.60
2018-11-14T18:30:14.987Z,8.50
2018-11-14T18:32:44.053Z,8.40
2018-11-14T18:35:16.025Z,8.50
2018-11-14T18:37:45.585Z,8.40
2018-11-14T18:40:15.959Z,8.50
2018-11-14T18:42:45.049Z,8.40
2018-11-14T18:45:26.017Z,8.40
2018-11-14T18:47:55.596Z,8.40
2018-11-14T18:50:25.232Z,8.40
2018-11-14T18:52:54.039Z,8.40
2018-11-14T18:55:24.028Z,8.40
2018-11-14T18:57:52.905Z,8.40
2018-11-14T19:00:26.737Z,8.40
2018-11-14T19:02:55.736Z,8.40
2018-11-14T19:05:24.720Z,8.30
2018-11-14T19:07:53.494Z,8.40
2018-11-14T19:10:23.574Z,8.40
2018-11-14T19:12:52.696Z,8.40
2018-11-14T19:15:22.988Z,8.30
2018-11-14T19:17:52.136Z,8.30
2018-11-14T19:20:25.139Z,8.30
2018-11-14T19:22:54.535Z,8.30
2018-11-14T19:25:24.685Z,8.20
2018-11-14T19:27:53.501Z,8.20
2018-11-14T19:30:25.833Z,8.20
2018-11-14T19:32:55.116Z,8.10
2018-11-14T19:35:24.017Z,8.10
2018-11-14T19:37:54.082Z,8.10
2018-11-14T19:40:37.850Z,8.10
2018-11-14T19:43:09.432Z,8.10
2018-11-14T19:45:39.293Z,8.00
2018-11-14T19:48:08.608Z,8.00
2018-11-14T19:50:37.711Z,8.00
2018-11-14T19:53:06.967Z,8.00
2018-11-14T19:55:36.462Z,8.00
2018-11-14T19:58:05.947Z,8.00
2018-11-14T20:00:37.265Z,8.00
2018-11-14T20:03:06.832Z,8.00
2018-11-14T20:05:35.704Z,8.00
2018-11-14T20:08:04.626Z,8.00
2018-11-14T20:10:34.101Z,8.10
2018-11-14T20:13:02.690Z,8.00
2018-11-14T20:15:33.003Z,8.00
2018-11-14T20:18:01.997Z,8.00
2018-11-14T20:20:32.360Z,8.00
2018-11-14T20:23:01.161Z,8.10
2018-11-14T20:25:30.112Z,8.00
2018-11-14T20:27:59.036Z,8.10
2018-11-14T20:30:30.198Z,8.10
2018-11-14T20:33:00.311Z,8.10
2018-11-14T20:35:29.775Z,8.10
2018-11-14T20:37:58.884Z,8.20
2018-11-14T20:40:27.875Z,8.20
2018-11-14T20:42:57.162Z,8.20
2018-11-14T20:45:32.275Z,8.20
2018-11-14T20:48:01.000Z,8.20
2018-11-14T20:50:29.859Z,8.20
2018-11-14T20:53:00.483Z,8.20
2018-11-14T20:55:29.820Z,8.30
2018-11-14T20:57:58.885Z,8.20
2018-11-14T21:00:31.321Z,8.30
2018-11-14T21:03:00.136Z,8.20
2018-11-14T21:05:29.315Z,8.20
2018-11-14T21:07:58.343Z,8.20
2018-11-14T21:10:28.585Z,8.30
2018-11-14T21:12:57.592Z,8.30
2018-11-14T21:15:27.821Z,8.30
2018-11-14T21:17:57.606Z,8.30
2018-11-14T21:20:26.370Z,8.30
2018-11-14T21:22:55.179Z,8.30
2018-11-14T21:25:24.883Z,8.30
2018-11-14T21:27:54.257Z,8.30
2018-11-14T21:30:24.465Z,8.30
2018-11-14T21:32:53.445Z,8.30
2018-11-14T21:35:30.212Z,8.30
2018-11-14T21:38:00.212Z,8.20
2018-11-14T21:40:28.973Z,8.30
2018-11-14T21:42:57.795Z,8.20
2018-11-14T21:45:27.507Z,8.20
2018-11-14T21:48:01.925Z,8.20
2018-11-14T21:50:31.532Z,8.20
2018-11-14T21:53:00.379Z,8.20
2018-11-14T21:55:29.184Z,8.20
2018-11-14T21:57:57.969Z,8.20
2018-11-14T22:00:35.378Z,8.20
2018-11-14T22:03:04.388Z,8.20
2018-11-14T22:05:33.558Z,8.10
2018-11-14T22:08:02.302Z,8.10
2018-11-14T22:10:30.964Z,8.10
2018-11-14T22:12:59.808Z,8.10
2018-11-14T22:15:29.444Z,8.10
2018-11-14T22:17:58.207Z,8.10
2018-11-14T22:20:27.907Z,8.10
2018-11-14T22:22:56.586Z,8.10
2018-11-14T22:25:26.135Z,8.10
2018-11-14T22:27:54.880Z,8.10
2018-11-14T22:30:32.252Z,8.10
2018-11-14T22:33:00.945Z,8.10
2018-11-14T22:35:30.854Z,8.10
2018-11-14T22:37:59.455Z,8.10
2018-11-14T22:40:29.424Z,8.10
2018-11-14T22:42:58.043Z,8.10
2018-11-14T22:45:28.993Z,8.10
2018-11-14T22:47:57.682Z,8.20
2018-11-14T22:50:26.880Z,8.20
2018-11-14T22:52:55.673Z,8.20
2018-11-14T22:55:25.297Z,8.20
2018-11-14T22:57:54.192Z,8.10
2018-11-14T23:00:26.230Z,8.20
2018-11-14T23:02:56.374Z,8.20
2018-11-14T23:05:25.152Z,8.10
2018-11-14T23:07:54.552Z,8.10
2018-11-14T23:10:24.245Z,8.20
2018-11-14T23:12:53.068Z,8.20
2018-11-14T23:15:22.394Z,8.20
2018-11-14T23:17:51.222Z,8.20
2018-11-14T23:20:20.136Z,8.10
2018-11-14T23:22:49.522Z,8.10
2018-11-14T23:25:18.838Z,8.20
2018-11-14T23:27:48.845Z,8.20
2018-11-14T23:30:18.454Z,8.20
2018-11-14T23:32:48.376Z,8.10
2018-11-14T23:35:32.779Z,8.10
2018-11-14T23:38:02.734Z,8.10
2018-11-14T23:40:31.733Z,8.10
2018-11-14T23:43:00.401Z,8.20
2018-11-14T23:45:29.623Z,8.10
2018-11-14T23:47:58.268Z,8.10
2018-11-14T23:50:28.315Z,8.20
2018-11-14T23:52:57.796Z,8.20
2018-11-14T23:55:27.338Z,8.10
2018-11-14T23:57:56.103Z,8.20
